Time;durP1;ratioP1;P1;durP2;ratioP2;P2;SDS_P1;SDS_P2;PMS_P1;PMS_P2;Temp;Humidity;BMP_temperature;BMP_pressure;BME280_temperature;BME280_humidity;BME280_pressure;Samples;Min_cycle;Max_cycle;Signal;HPM_P1;HPM_P2
2021/06/01 00:01:52;;;;;;;15.30;9.65;;;;;7.50;101027.00;;;;5067350;28;20487;-71
2021/06/01 00:04:19;;;;;;;18.23;9.27;;;;;7.50;101022.00;;;;5067469;28;20048;-72
2021/06/01 00:06:46;;;;;;;16.73;9.35;;;;;7.50;101030.00;;;;5067121;28;20400;-72
2021/06/01 00:09:17;;;;;;;11.88;8.63;;;;;7.40;101013.00;;;;5067021;28;20032;-72
2021/06/01 00:11:45;;;;;;;17.77;10.00;;;;;7.50;101022.00;;;;5066943;28;20024;-72
2021/06/01 00:14:13;;;;;;;17.42;7.82;;;;;7.50;101013.00;;;;5068016;28;20090;-72
2021/06/01 00:16:39;;;;;;;11.02;6.95;;;;;7.40;101019.00;;;;5067645;28;20039;-72
2021/06/01 00:19:07;;;;;;;13.50;7.55;;;;;7.40;101015.00;;;;5066271;28;20116;-71
2021/06/01 00:21:35;;;;;;;14.38;8.23;;;;;7.30;101021.00;;;;5067590;28;20151;-72
2021/06/01 00:24:02;;;;;;;12.50;7.78;;;;;7.40;101020.00;;;;5067468;28;20028;-71
2021/06/01 00:26:29;;;;;;;11.93;7.85;;;;;7.30;101002.00;;;;5067820;28;20056;-72
2021/06/01 00:28:55;;;;;;;16.17;7.97;;;;;7.30;101001.00;;;;5067802;28;20031;-72
2021/06/01 00:31:22;;;;;;;12.90;7.45;;;;;7.30;101010.00;;;;5067568;28;20507;-73
2021/06/01 00:33:48;;;;;;;13.80;8.13;;;;;7.30;100987.00;;;;5067986;28;20082;-72
2021/06/01 00:36:15;;;;;;;12.05;8.15;;;;;7.30;100995.00;;;;5067546;28;20063;-72
2021/06/01 00:38:41;;;;;;;15.20;8.48;;;;;7.30;100994.00;;;;5068043;28;20036;-72
2021/06/01 00:41:08;;;;;;;21.35;11.52;;;;;7.20;100983.00;;;;5067303;28;20027;-72
2021/06/01 00:43:35;;;;;;;35.88;14.30;;;;;7.10;100982.00;;;;5067526;28;20036;-71
2021/06/01 00:46:02;;;;;;;38.97;25.52;;;;;7.10;100987.00;;;;5067232;28;20099;-72
2021/06/01 00:48:28;;;;;;;21.77;16.67;;;;;7.00;100981.00;;;;5067571;28;20024;-71
2021/06/01 00:50:55;;;;;;;37.83;23.38;;;;;7.00;100990.00;;;;5068259;28;20036;-72
2021/06/01 00:53:22;;;;;;;25.00;18.30;;;;;7.00;100975.00;;;;5066756;28;20399;-72
2021/06/01 00:55:50;;;;;;;27.08;19.30;;;;;7.10;100963.00;;;;5067647;28;20043;-72
2021/06/01 00:58:16;;;;;;;30.17;15.98;;;;;7.10;100955.00;;;;5067263;28;20094;-72
2021/06/01 01:03:15;;;;;;;30.17;12.75;;;;;7.00;100959.00;;;;5066735;28;20113;-72
2021/06/01 01:05:47;;;;;;;18.50;11.85;;;;;7.00;100946.00;;;;5067290;28;20042;-72
2021/06/01 01:08:46;;;;;;;16.05;10.00;;;;;7.10;100951.00;;;;5067144;28;20025;-72
2021/06/01 01:11:37;;;;;;;18.40;10.32;;;;;7.00;100945.00;;;;5065812;28;20581;-73
2021/06/01 01:14:33;;;;;;;18.25;11.13;;;;;7.00;100959.00;;;;5067418;28;20079;-72
2021/06/01 01:17:08;;;;;;;12.27;10.40;;;;;7.00;100939.00;;;;5066790;28;20070;-72
2021/06/01 01:19:50;;;;;;;19.70;11.00;;;;;7.00;100960.00;;;;5067379;28;20085;-72
2021/06/01 01:22:17;;;;;;;18.63;9.55;;;;;7.00;100943.00;;;;5067307;28;20056;-73
2021/06/01 01:25:02;;;;;;;18.02;9.00;;;;;7.00;100954.00;;;;5066962;28;20753;-71
2021/06/01 01:27:52;;;;;;;14.10;8.82;;;;;7.00;100943.00;;;;5067057;28;20102;-72
2021/06/01 01:30:19;;;;;;;22.33;9.38;;;;;7.00;100934.00;;;;5067066;28;20093;-72
2021/06/01 01:33:02;;;;;;;12.70;9.13;;;;;7.00;100933.00;;;;5067196;28;20025;-72
2021/06/01 01:35:33;;;;;;;26.80;12.75;;;;;6.90;100915.00;;;;5066556;28;20039;-72
2021/06/01 01:38:03;;;;;;;21.13;16.35;;;;;6.80;100925.00;;;;5066156;28;20032;-72
2021/06/01 01:40:31;;;;;;;23.08;15.75;;;;;6.80;100931.00;;;;5066572;28;20407;-72
2021/06/01 01:43:08;;;;;;;21.77;14.30;;;;;6.80;100913.00;;;;5066749;28;20052;-72
2021/06/01 01:45:36;;;;;;;16.85;13.57;;;;;6.80;100902.00;;;;5066810;28;20039;-72
2021/06/01 01:51:00;;;;;;;23.08;17.40;;;;;6.80;100916.00;;;;5066642;28;20463;-72
2021/06/01 01:53:27;;;;;;;22.67;13.97;;;;;6.80;100920.00;;;;5066192;28;20780;-72
2021/06/01 01:55:54;;;;;;;19.55;11.55;;;;;6.90;100915.00;;;;5066070;28;20263;-72
2021/06/01 01:58:22;;;;;;;16.70;10.23;;;;;6.90;100908.00;;;;5066159;28;20033;-72
2021/06/01 02:00:49;;;;;;;18.25;11.07;;;;;6.90;100898.00;;;;5066458;28;20483;-72
2021/06/01 02:03:20;;;;;;;15.52;10.88;;;;;6.90;100915.00;;;;5066161;28;20024;-72
2021/06/01 02:05:47;;;;;;;15.33;9.43;;;;;6.90;100925.00;;;;5047958;28;20032;-72
2021/06/01 02:08:13;;;;;;;23.25;10.68;;;;;6.90;100918.00;;;;5066371;28;20082;-72
2021/06/01 02:10:40;;;;;;;14.20;9.70;;;;;6.80;100928.00;;;;5066803;28;20833;-73
2021/06/01 02:13:07;;;;;;;14.55;10.57;;;;;6.80;100916.00;;;;5065811;28;20078;-72
2021/06/01 02:15:33;;;;;;;16.38;11.93;;;;;6.80;100905.00;;;;5066081;28;20029;-72
2021/06/01 02:18:00;;;;;;;22.27;11.43;;;;;6.80;100913.00;;;;5065225;28;20028;-72
2021/06/01 02:20:27;;;;;;;19.77;10.27;;;;;6.90;100907.00;;;;5065554;28;20464;-71
2021/06/01 02:25:57;;;;;;;14.45;8.82;;;;;6.90;100915.00;;;;5066576;28;20383;-72
2021/06/01 02:28:29;;;;;;;20.67;11.82;;;;;6.90;100896.00;;;;5064920;28;20052;-71
2021/06/01 02:31:09;;;;;;;14.10;9.95;;;;;6.80;100906.00;;;;5066093;28;20021;-72
2021/06/01 02:33:37;;;;;;;16.73;9.80;;;;;6.80;100899.00;;;;5065591;28;20029;-72
2021/06/01 02:36:05;;;;;;;22.30;9.93;;;;;6.80;100918.00;;;;5066479;28;20527;-73
2021/06/01 02:38:33;;;;;;;13.80;8.25;;;;;6.80;100912.00;;;;5066611;28;20097;-72
2021/06/01 02:41:02;;;;;;;10.80;8.85;;;;;6.80;100911.00;;;;5064872;28;20028;-71
2021/06/01 02:43:29;;;;;;;19.15;13.23;;;;;6.80;100906.00;;;;5065763;28;20043;-72
2021/06/01 02:45:56;;;;;;;15.73;11.93;;;;;6.70;100925.00;;;;5065784;28;20741;-72
2021/06/01 02:48:25;;;;;;;10.80;8.10;;;;;6.60;100910.00;;;;5065723;28;20032;-72
2021/06/01 02:50:54;;;;;;;13.73;8.50;;;;;6.60;100933.00;;;;5065770;28;20099;-72
2021/06/01 02:53:22;;;;;;;13.18;10.50;;;;;6.50;100931.00;;;;5065625;28;20078;-72
2021/06/01 02:55:49;;;;;;;21.15;15.68;;;;;6.60;100919.00;;;;5064916;28;20029;-72
2021/06/01 02:58:15;;;;;;;23.50;16.80;;;;;6.60;100902.00;;;;5065555;28;20056;-72
2021/06/01 03:00:44;;;;;;;22.80;13.75;;;;;6.60;100908.00;;;;5065408;28;20035;-72
2021/06/01 03:03:13;;;;;;;21.80;15.77;;;;;6.50;100909.00;;;;5066008;28;20055;-73
2021/06/01 03:05:41;;;;;;;17.70;14.07;;;;;6.50;100897.00;;;;5065860;28;20036;-72
2021/06/01 03:08:20;;;;;;;20.27;14.60;;;;;6.50;100893.00;;;;5065084;28;20506;-72
2021/06/01 03:10:46;;;;;;;18.05;12.85;;;;;6.50;100904.00;;;;5064832;28;20054;-72
2021/06/01 03:13:13;;;;;;;16.98;12.40;;;;;6.50;100899.00;;;;5066104;28;20091;-71
2021/06/01 03:15:39;;;;;;;15.27;11.90;;;;;6.50;100901.00;;;;5065497;28;20035;-71
2021/06/01 03:18:06;;;;;;;26.20;15.77;;;;;6.50;100875.00;;;;5065331;28;20166;-72
2021/06/01 03:20:32;;;;;;;16.63;11.70;;;;;6.50;100868.00;;;;5065496;28;20071;-72
2021/06/01 03:22:59;;;;;;;18.05;11.52;;;;;6.50;100886.00;;;;5065238;28;20459;-72
2021/06/01 03:25:25;;;;;;;14.98;11.90;;;;;6.50;100887.00;;;;5065487;28;20036;-72
2021/06/01 03:27:52;;;;;;;13.93;11.00;;;;;6.50;100896.00;;;;5064828;28;20040;-71
2021/06/01 03:30:19;;;;;;;22.05;13.63;;;;;6.50;100881.00;;;;5065820;28;20025;-73
2021/06/01 03:32:45;;;;;;;20.98;13.82;;;;;6.50;100874.00;;;;5047663;28;20428;-72
2021/06/01 03:35:12;;;;;;;21.50;14.95;;;;;6.50;100893.00;;;;5064718;28;20031;-72
2021/06/01 03:37:38;;;;;;;21.92;13.77;;;;;6.50;100875.00;;;;5065712;28;20506;-72
2021/06/01 03:40:06;;;;;;;20.02;13.25;;;;;6.50;100876.00;;;;5065787;28;20100;-71
2021/06/01 03:42:32;;;;;;;23.30;13.50;;;;;6.50;100881.00;;;;5047533;28;20036;-71
2021/06/01 03:44:59;;;;;;;16.63;14.55;;;;;6.50;100878.00;;;;5065849;28;20035;-72
2021/06/01 03:47:26;;;;;;;29.02;20.63;;;;;6.50;100862.00;;;;5065157;28;20043;-72
2021/06/01 03:49:54;;;;;;;32.22;23.95;;;;;6.50;100878.00;;;;5065029;28;20033;-72
2021/06/01 03:52:21;;;;;;;38.45;23.13;;;;;6.50;100880.00;;;;5065463;28;20714;-72
2021/06/01 03:54:47;;;;;;;21.77;15.63;;;;;6.50;100900.00;;;;5067745;28;20029;-71
2021/06/01 03:57:14;;;;;;;20.27;13.70;;;;;6.50;100892.00;;;;5068881;28;20056;-71
2021/06/01 03:59:41;;;;;;;21.77;12.90;;;;;6.60;100878.00;;;;5068621;28;20115;-71
2021/06/01 04:02:08;;;;;;;17.15;11.82;;;;;6.60;100860.00;;;;5069043;28;20056;-71
2021/06/01 04:04:35;;;;;;;15.18;12.23;;;;;6.60;100887.00;;;;5068091;28;20059;-71
2021/06/01 04:07:03;;;;;;;21.73;14.43;;;;;6.70;100881.00;;;;5068568;28;20102;-71
2021/06/01 04:09:30;;;;;;;17.75;13.80;;;;;6.70;100874.00;;;;5069080;28;20025;-72
2021/06/01 04:11:56;;;;;;;17.90;14.40;;;;;6.80;100875.00;;;;5068610;28;20672;-72
2021/06/01 04:14:23;;;;;;;23.95;14.13;;;;;6.90;100875.00;;;;5068330;28;20513;-71
2021/06/01 04:16:50;;;;;;;21.20;13.90;;;;;6.90;100872.00;;;;5068573;28;20123;-72
2021/06/01 04:19:16;;;;;;;27.40;15.65;;;;;6.90;100875.00;;;;5068167;28;20033;-71
2021/06/01 04:21:43;;;;;;;21.55;14.07;;;;;6.80;100888.00;;;;5067903;28;20033;-72
2021/06/01 04:24:10;;;;;;;16.70;12.70;;;;;6.80;100880.00;;;;5068793;28;20056;-72
2021/06/01 04:26:37;;;;;;;19.75;12.10;;;;;6.80;100876.00;;;;5067428;28;20482;-72
2021/06/01 04:29:04;;;;;;;13.95;11.30;;;;;6.80;100874.00;;;;5068134;28;20040;-72
2021/06/01 04:31:31;;;;;;;18.85;12.68;;;;;6.70;100880.00;;;;5068015;28;20103;-71
2021/06/01 04:33:58;;;;;;;15.50;11.73;;;;;6.70;100887.00;;;;5068308;28;20027;-71
2021/06/01 04:36:25;;;;;;;14.75;11.15;;;;;6.40;100871.00;;;;5068208;28;20105;-72
2021/06/01 04:38:53;;;;;;;19.95;11.40;;;;;6.30;100885.00;;;;5067445;28;20037;-72
2021/06/01 04:41:20;;;;;;;18.52;13.00;;;;;6.30;100865.00;;;;5067749;28;20024;-72
2021/06/01 04:43:46;;;;;;;19.50;12.98;;;;;6.40;100879.00;;;;5067557;28;20029;-72
2021/06/01 04:46:13;;;;;;;18.20;12.82;;;;;6.30;100887.00;;;;5067628;28;20024;-73
2021/06/01 04:48:39;;;;;;;25.00;13.57;;;;;6.20;100882.00;;;;5068257;28;20056;-72
2021/06/01 04:51:16;;;;;;;19.00;12.35;;;;;6.30;100874.00;;;;5067970;28;21052;-72
2021/06/01 04:53:57;;;;;;;15.95;11.68;;;;;6.30;100870.00;;;;5067654;28;20444;-72
2021/06/01 04:56:24;;;;;;;18.53;11.60;;;;;6.30;100880.00;;;;5067462;28;20037;-74
2021/06/01 04:58:51;;;;;;;19.50;11.57;;;;;6.10;100878.00;;;;5067324;28;20041;-72
2021/06/01 05:01:18;;;;;;;14.18;10.30;;;;;6.00;100886.00;;;;5067415;28;20090;-72
2021/06/01 05:03:45;;;;;;;14.85;11.70;;;;;6.10;100876.00;;;;5066762;28;20089;-72
2021/06/01 05:06:11;;;;;;;16.45;12.60;;;;;6.10;100883.00;;;;5067371;28;20119;-72
2021/06/01 05:08:38;;;;;;;28.05;19.63;;;;;6.00;100869.00;;;;5067257;28;20031;-71
2021/06/01 05:11:05;;;;;;;36.33;23.65;;;;;5.90;100865.00;;;;5066913;28;20032;-72
2021/06/01 05:13:31;;;;;;;26.15;17.80;;;;;5.90;100858.00;;;;5067056;28;20549;-72
2021/06/01 05:15:58;;;;;;;22.13;14.23;;;;;5.90;100862.00;;;;5067465;28;20021;-72
2021/06/01 05:18:25;;;;;;;20.73;14.05;;;;;5.90;100855.00;;;;5066580;28;20075;-72
2021/06/01 05:20:51;;;;;;;21.30;14.70;;;;;5.90;100851.00;;;;5067264;28;20081;-71
2021/06/01 05:23:18;;;;;;;18.05;14.15;;;;;5.80;100848.00;;;;5066939;28;20024;-73
2021/06/01 05:25:45;;;;;;;17.13;12.35;;;;;5.90;100844.00;;;;5067029;28;20035;-72
2021/06/01 05:28:12;;;;;;;18.45;13.35;;;;;5.90;100833.00;;;;5066390;28;20079;-72
2021/06/01 05:31:05;;;;;;;16.15;12.70;;;;;5.80;100827.00;;;;5066788;28;20044;-72
2021/06/01 05:33:32;;;;;;;23.25;12.35;;;;;5.80;100830.00;;;;5066197;28;20033;-72
2021/06/01 05:35:59;;;;;;;21.23;12.10;;;;;5.80;100844.00;;;;5066056;28;20487;-72
2021/06/01 05:38:27;;;;;;;15.45;11.48;;;;;5.80;100819.00;;;;5066693;28;20029;-72
2021/06/01 05:40:54;;;;;;;12.80;11.00;;;;;5.70;100829.00;;;;5067046;28;20027;-72
2021/06/01 05:43:22;;;;;;;15.35;11.70;;;;;5.70;100821.00;;;;5067054;28;20518;-72
2021/06/01 05:45:49;;;;;;;14.65;12.40;;;;;5.70;100833.00;;;;5066510;28;20029;-72
2021/06/01 05:48:16;;;;;;;16.85;11.95;;;;;5.60;100821.00;;;;5066440;28;20567;-72
2021/06/01 05:50:43;;;;;;;13.18;11.38;;;;;5.70;100823.00;;;;5066325;28;20059;-72
2021/06/01 05:53:10;;;;;;;13.23;11.88;;;;;5.70;100823.00;;;;5066392;28;20090;-71
2021/06/01 05:55:38;;;;;;;18.17;13.00;;;;;5.80;100832.00;;;;5066339;28;20033;-72
2021/06/01 05:58:05;;;;;;;16.20;12.27;;;;;5.80;100813.00;;;;5065963;28;20611;-72
2021/06/01 06:00:33;;;;;;;14.82;11.80;;;;;5.80;100821.00;;;;5066971;28;20449;-71
2021/06/01 06:03:02;;;;;;;16.10;10.48;;;;;5.70;100800.00;;;;5066526;28;20721;-72
2021/06/01 06:05:30;;;;;;;11.80;10.60;;;;;5.70;100808.00;;;;5066244;28;20072;-72
2021/06/01 06:08:09;;;;;;;15.50;10.25;;;;;5.60;100813.00;;;;5066809;28;20035;-71
2021/06/01 06:10:36;;;;;;;13.68;10.73;;;;;5.60;100825.00;;;;5066297;28;20091;-71
2021/06/01 06:13:04;;;;;;;15.52;10.20;;;;;5.60;100828.00;;;;5066461;28;20032;-71
2021/06/01 06:15:31;;;;;;;12.95;10.57;;;;;5.70;100824.00;;;;5065732;28;20029;-71
2021/06/01 06:21:19;;;;;;;13.95;9.77;;;;;5.70;100821.00;;;;5055943;28;20106;-71
2021/06/01 06:23:45;;;;;;;13.85;11.60;;;;;5.70;100826.00;;;;5045645;28;20032;-71
2021/06/01 06:26:12;;;;;;;17.08;11.23;;;;;5.70;100801.00;;;;5045864;28;20037;-72
2021/06/01 06:28:39;;;;;;;15.98;11.30;;;;;5.60;100810.00;;;;5045908;28;20088;-70
2021/06/01 06:31:05;;;;;;;12.95;10.77;;;;;5.70;100823.00;;;;5045599;28;20036;-71
2021/06/01 06:33:32;;;;;;;19.45;10.98;;;;;5.70;100805.00;;;;5045697;28;20486;-71
2021/06/01 06:35:58;;;;;;;14.15;11.68;;;;;5.70;100805.00;;;;5044308;28;20068;-71
2021/06/01 06:38:25;;;;;;;18.33;12.60;;;;;5.70;100814.00;;;;5045575;28;20032;-71
2021/06/01 06:41:11;;;;;;;18.25;11.73;;;;;5.70;100820.00;;;;5046100;28;20507;-72
2021/06/01 06:43:39;;;;;;;13.90;11.35;;;;;5.60;100812.00;;;;5045906;28;20021;-71
2021/06/01 06:46:16;;;;;;;16.65;11.48;;;;;5.70;100829.00;;;;5046469;28;20120;-71
2021/06/01 06:48:43;;;;;;;14.10;10.90;;;;;5.60;100816.00;;;;5045458;28;20115;-71
2021/06/01 06:51:13;;;;;;;18.65;10.45;;;;;5.70;100825.00;;;;5043805;28;20435;-72
2021/06/01 06:53:52;;;;;;;18.38;13.45;;;;;5.60;100821.00;;;;5045782;28;20040;-72
2021/06/01 06:56:21;;;;;;;18.98;14.52;;;;;5.60;100810.00;;;;5046028;28;20031;-71
2021/06/01 06:58:48;;;;;;;21.60;13.95;;;;;5.60;100811.00;;;;5045845;28;20029;-71
2021/06/01 07:01:15;;;;;;;17.17;12.07;;;;;5.50;100828.00;;;;5045511;28;20527;-71
2021/06/01 07:03:42;;;;;;;17.63;12.13;;;;;5.40;100826.00;;;;5045026;28;20033;-71
2021/06/01 07:06:09;;;;;;;13.85;11.20;;;;;5.50;100815.00;;;;5045891;28;20057;-71
2021/06/01 07:08:36;;;;;;;14.70;10.93;;;;;5.50;100843.00;;;;5046297;28;20055;-71
2021/06/01 07:11:03;;;;;;;17.02;11.57;;;;;5.50;100822.00;;;;5045220;28;20029;-72
2021/06/01 07:13:49;;;;;;;18.13;11.98;;;;;5.50;100811.00;;;;5045440;28;20052;-71
2021/06/01 07:16:16;;;;;;;13.77;10.18;;;;;5.40;100806.00;;;;5045588;28;20411;-72
2021/06/01 07:18:43;;;;;;;16.08;10.30;;;;;5.40;100798.00;;;;5045411;28;20436;-72
2021/06/01 07:21:14;;;;;;;16.15;11.15;;;;;5.40;100786.00;;;;5045389;28;20373;-72
2021/06/01 07:23:41;;;;;;;14.32;11.20;;;;;5.30;100789.00;;;;5045421;28;20029;-72
2021/06/01 07:26:09;;;;;;;19.35;11.65;;;;;5.30;100790.00;;;;5045573;28;20059;-71
2021/06/01 07:28:37;;;;;;;14.63;11.45;;;;;5.30;100794.00;;;;5047371;28;20909;-72
2021/06/01 07:31:05;;;;;;;14.18;11.13;;;;;5.40;100782.00;;;;5048591;28;20492;-72
2021/06/01 07:33:32;;;;;;;16.95;11.98;;;;;5.30;100789.00;;;;5050286;28;20033;-72
2021/06/01 07:35:58;;;;;;;20.13;12.27;;;;;5.30;100794.00;;;;5031035;28;20036;-72
2021/06/01 07:38:25;;;;;;;14.23;10.20;;;;;5.30;100783.00;;;;5049353;28;20155;-72
2021/06/01 07:40:51;;;;;;;16.20;10.82;;;;;5.30;100800.00;;;;5048796;28;20025;-72
2021/06/01 07:43:18;;;;;;;16.35;11.82;;;;;5.30;100804.00;;;;5048703;28;20025;-71
2021/06/01 07:45:44;;;;;;;14.32;11.57;;;;;5.20;100788.00;;;;5049282;28;20024;-72
2021/06/01 07:48:12;;;;;;;15.98;11.57;;;;;5.20;100774.00;;;;5048559;28;20428;-72
2021/06/01 07:50:38;;;;;;;14.43;9.98;;;;;5.10;100795.00;;;;5049254;28;20401;-72
2021/06/01 07:53:05;;;;;;;12.70;10.40;;;;;5.10;100793.00;;;;5047690;28;20033;-72
2021/06/01 07:55:32;;;;;;;11.98;9.95;;;;;5.10;100776.00;;;;5047350;28;20036;-72
2021/06/01 07:57:59;;;;;;;11.70;9.57;;;;;5.10;100785.00;;;;5047647;28;20029;-72
2021/06/01 08:00:26;;;;;;;13.85;8.75;;;;;5.20;100788.00;;;;5048722;28;20514;-72
2021/06/01 08:02:53;;;;;;;17.27;9.95;;;;;5.20;100791.00;;;;5048328;28;20033;-72
2021/06/01 08:05:20;;;;;;;12.05;10.00;;;;;5.20;100794.00;;;;5048510;28;20025;-72
2021/06/01 08:07:48;;;;;;;16.58;10.07;;;;;5.20;100796.00;;;;5048242;28;20048;-72
2021/06/01 08:10:21;;;;;;;11.45;8.05;;;;;5.20;100774.00;;;;5047951;28;20066;-71
2021/06/01 08:12:49;;;;;;;11.13;9.07;;;;;5.20;100786.00;;;;5047945;28;20033;-72
2021/06/01 08:15:19;;;;;;;11.18;9.30;;;;;5.10;100775.00;;;;5048732;28;20021;-71
2021/06/01 08:17:46;;;;;;;15.70;10.15;;;;;5.10;100776.00;;;;5048397;28;20553;-71
2021/06/01 08:20:16;;;;;;;13.57;10.00;;;;;5.10;100771.00;;;;5048045;28;20458;-72
2021/06/01 08:22:45;;;;;;;14.45;11.05;;;;;5.10;100765.00;;;;5048094;28;20404;-72
2021/06/01 08:25:11;;;;;;;17.27;11.70;;;;;5.20;100772.00;;;;5049157;28;20036;-72
2021/06/01 08:27:38;;;;;;;15.52;11.35;;;;;5.20;100753.00;;;;5048353;28;20070;-71
2021/06/01 08:30:06;;;;;;;21.08;10.50;;;;;5.10;100766.00;;;;5048472;28;20033;-71
2021/06/01 08:32:33;;;;;;;16.55;11.10;;;;;5.00;100786.00;;;;5047889;28;20037;-71
2021/06/01 08:35:00;;;;;;;16.92;10.65;;;;;5.00;100762.00;;;;5048371;28;20385;-71
2021/06/01 08:37:26;;;;;;;14.45;10.13;;;;;4.90;100765.00;;;;5047565;28;20029;-71
2021/06/01 08:39:53;;;;;;;16.65;10.88;;;;;5.00;100776.00;;;;5047605;28;20029;-71
2021/06/01 08:42:20;;;;;;;17.00;11.00;;;;;4.90;100780.00;;;;5048348;28;20024;-71
2021/06/01 08:44:50;;;;;;;17.45;10.57;;;;;5.00;100804.00;;;;5047716;28;20029;-71
2021/06/01 08:47:21;;;;;;;17.58;11.25;;;;;5.00;100797.00;;;;5047818;28;20033;-71
2021/06/01 08:49:48;;;;;;;16.00;10.75;;;;;5.00;100792.00;;;;5048118;28;20040;-72
2021/06/01 08:52:16;;;;;;;18.73;12.48;;;;;5.00;100795.00;;;;5048137;28;20056;-71
2021/06/01 08:54:46;;;;;;;18.35;11.02;;;;;5.00;100792.00;;;;5047643;28;20084;-71
2021/06/01 08:57:13;;;;;;;14.73;9.57;;;;;4.80;100802.00;;;;5047808;28;20047;-71
2021/06/01 08:59:40;;;;;;;14.27;9.70;;;;;4.80;100806.00;;;;5047356;28;20508;-71
2021/06/01 09:02:07;;;;;;;18.30;10.93;;;;;4.80;100802.00;;;;5047612;28;20800;-72
2021/06/01 09:04:59;;;;;;;17.83;10.75;;;;;4.90;100801.00;;;;5046928;28;20488;-71
2021/06/01 09:07:39;;;;;;;16.60;11.93;;;;;4.90;100798.00;;;;5047072;28;20024;-71
2021/06/01 09:21:42;;;;;;;15.23;9.05;;;;;4.90;100809.00;;;;5047150;28;20437;-71
2021/06/01 09:24:09;;;;;;;14.82;9.98;;;;;4.90;100805.00;;;;5045595;28;20037;-71
2021/06/01 09:26:50;;;;;;;13.95;10.30;;;;;4.90;100794.00;;;;5046667;28;20052;-71
2021/06/01 09:29:17;;;;;;;16.35;10.23;;;;;4.90;100792.00;;;;5046442;28;20033;-71
2021/06/01 09:31:44;;;;;;;13.05;9.45;;;;;4.90;100801.00;;;;5046201;28;20400;-71
2021/06/01 09:34:11;;;;;;;13.38;9.13;;;;;4.90;100788.00;;;;5046730;28;20366;-71
2021/06/01 09:36:38;;;;;;;11.02;8.98;;;;;4.80;100797.00;;;;5046272;28;20024;-71
2021/06/01 09:39:08;;;;;;;11.88;9.18;;;;;4.80;100801.00;;;;5046181;28;20840;-71
2021/06/01 09:41:35;;;;;;;10.27;8.95;;;;;4.80;100813.00;;;;5046369;28;20090;-71
2021/06/01 09:44:05;;;;;;;11.73;8.43;;;;;4.80;100804.00;;;;5045990;28;20021;-70
2021/06/01 09:46:34;;;;;;;12.55;8.30;;;;;4.80;100801.00;;;;5046293;28;20052;-71
2021/06/01 09:49:13;;;;;;;16.65;10.45;;;;;4.80;100785.00;;;;5046118;28;20071;-71
2021/06/01 09:51:46;;;;;;;12.30;9.82;;;;;4.80;100791.00;;;;5046712;28;20090;-71
2021/06/01 09:54:47;;;;;;;13.02;9.60;;;;;4.80;100785.00;;;;5045823;28;20112;-71
2021/06/01 09:57:26;;;;;;;12.60;9.75;;;;;4.80;100794.00;;;;5046521;28;20029;-70
2021/06/01 10:00:16;;;;;;;14.23;9.48;;;;;4.80;100785.00;;;;5045541;28;20511;-71
2021/06/01 10:02:43;;;;;;;13.57;9.55;;;;;4.80;100775.00;;;;5045568;28;20029;-71
2021/06/01 10:05:14;;;;;;;19.27;9.55;;;;;4.90;100803.00;;;;5046105;28;20031;-71
2021/06/01 10:07:42;;;;;;;24.10;11.20;;;;;4.90;100800.00;;;;5045891;28;20037;-70
2021/06/01 10:10:12;;;;;;;9.82;8.25;;;;;5.00;100785.00;;;;5045682;28;20049;-72
2021/06/01 10:12:39;;;;;;;18.83;9.73;;;;;5.00;100794.00;;;;5045830;28;20054;-71
2021/06/01 10:15:07;;;;;;;17.02;9.52;;;;;5.00;100789.00;;;;5045535;28;20033;-71
2021/06/01 10:17:34;;;;;;;13.82;8.95;;;;;5.20;100799.00;;;;5044973;28;20403;-72
2021/06/01 10:20:00;;;;;;;15.05;10.20;;;;;5.20;100810.00;;;;5045979;28;20098;-71
2021/06/01 10:22:27;;;;;;;10.95;9.27;;;;;5.20;100788.00;;;;5045976;28;20052;-72
2021/06/01 10:24:54;;;;;;;19.80;10.95;;;;;5.30;100797.00;;;;5045962;28;20036;-71
2021/06/01 10:27:21;;;;;;;16.65;10.38;;;;;5.20;100794.00;;;;5045878;28;20053;-72
2021/06/01 10:29:51;;;;;;;15.98;11.13;;;;;5.30;100800.00;;;;5044716;28;20068;-72
2021/06/01 10:32:18;;;;;;;16.45;10.07;;;;;5.20;100797.00;;;;5045809;28;20044;-71
2021/06/01 10:34:45;;;;;;;32.70;14.50;;;;;5.30;100791.00;;;;5046142;28;20075;-72
2021/06/01 10:43:21;;;;;;;27.00;13.65;;;;;5.60;100810.00;;;;5045706;28;20046;-72
2021/06/01 10:52:00;;;;;;;18.17;10.55;;;;;8.10;100711.00;;;;5045875;28;20055;-72
2021/06/01 10:54:46;;;;;;;16.17;10.63;;;;;9.30;100731.00;;;;5044956;28;20060;-72
2021/06/01 10:57:14;;;;;;;42.20;9.40;;;;;9.50;100740.00;;;;5045509;28;20037;-72
2021/06/01 10:59:57;;;;;;;18.58;7.72;;;;;9.90;100754.00;;;;5027713;28;20032;-73
2021/06/01 11:02:25;;;;;;;17.10;9.43;;;;;9.00;100760.00;;;;5046891;28;20032;-72
2021/06/01 11:05:01;;;;;;;28.15;12.00;;;;;9.10;100733.00;;;;5049330;28;20025;-73
2021/06/01 11:07:40;;;;;;;26.92;10.18;;;;;8.00;100833.00;;;;5049149;28;20031;-73
2021/06/01 11:10:07;;;;;;;26.30;9.43;;;;;8.10;100789.00;;;;5049069;28;20037;-71
2021/06/01 11:12:37;;;;;;;28.33;9.85;;;;;10.00;100699.00;;;;5049428;28;20032;-71
2021/06/01 11:15:26;;;;;;;18.48;7.80;;;;;11.90;100692.00;;;;5049024;28;20123;-71
2021/06/01 11:17:52;;;;;;;14.63;8.40;;;;;12.10;100659.00;;;;5048981;28;20068;-71
2021/06/01 11:23:10;;;;;;;25.70;7.43;;;;;14.60;100647.00;;;;5049497;28;20072;-71
2021/06/01 11:34:51;;;;;;;15.95;7.20;;;;;16.00;100637.00;;;;5049341;28;20039;-72
2021/06/01 11:37:30;;;;;;;15.23;6.10;;;;;16.50;100688.00;;;;5048543;28;20502;-72
2021/06/01 11:40:21;;;;;;;12.68;6.80;;;;;17.20;100697.00;;;;5048494;28;20068;-71
2021/06/01 11:42:48;;;;;;;14.52;6.25;;;;;17.30;100681.00;;;;5033381;28;20044;-71
2021/06/01 11:45:15;;;;;;;23.13;7.30;;;;;17.50;100705.00;;;;5049164;28;20033;-72
2021/06/01 11:48:06;;;;;;;17.35;6.20;;;;;17.90;100703.00;;;;5048791;28;20021;-71
2021/06/01 11:53:17;;;;;;;9.95;5.38;;;;;17.40;100683.00;;;;5048491;28;20508;-72
2021/06/01 11:55:47;;;;;;;12.90;6.13;;;;;17.30;100675.00;;;;5047639;28;20029;-72
2021/06/01 12:04:08;;;;;;;17.83;6.95;;;;;19.60;100716.00;;;;5048471;28;20681;-72
2021/06/01 12:12:44;;;;;;;7.88;4.38;;;;;19.50;100653.00;;;;5047668;28;20558;-73
2021/06/01 12:18:23;;;;;;;10.93;4.10;;;;;19.70;100669.00;;;;5047505;28;20043;-72
2021/06/01 12:20:50;;;;;;;13.65;4.32;;;;;19.50;100668.00;;;;5048417;28;20124;-72
2021/06/01 12:23:33;;;;;;;5.47;3.55;;;;;20.70;100711.00;;;;5047357;28;20297;-72
2021/06/01 12:26:03;;;;;;;10.60;3.85;;;;;20.40;100749.00;;;;5047561;28;20059;-73
2021/06/01 12:31:17;;;;;;;15.52;3.80;;;;;20.50;100707.00;;;;5048134;28;20147;-73
2021/06/01 12:33:58;;;;;;;8.32;3.42;;;;;21.40;100710.00;;;;5047537;28;20033;-73
2021/06/01 12:37:10;;;;;;;7.18;3.50;;;;;21.00;100687.00;;;;5047546;28;20033;-73
2021/06/01 12:42:59;;;;;;;9.52;3.10;;;;;21.90;100722.00;;;;5048111;28;20035;-71
2021/06/01 12:45:41;;;;;;;8.20;3.00;;;;;22.40;100718.00;;;;5046501;28;20033;-73
2021/06/01 13:22:09;;;;;;;6.93;3.13;;;;;23.70;100763.00;;;;5046784;28;20384;-71
2021/06/01 13:30:32;;;;;;;8.70;3.20;;;;;23.80;100703.00;;;;5046899;28;20103;-72
2021/06/01 13:47:19;;;;;;;13.50;5.68;;;;;24.20;100702.00;;;;5046414;28;20041;-72
2021/06/01 13:49:48;;;;;;;3.30;2.22;;;;;24.00;100632.00;;;;5046449;28;20419;-74
2021/06/01 13:52:35;;;;;;;8.38;2.40;;;;;24.40;100671.00;;;;5045966;28;20029;-75
2021/06/01 13:58:10;;;;;;;4.28;2.25;;;;;24.40;100612.00;;;;5046306;28;20032;-75
2021/06/01 14:00:38;;;;;;;8.00;2.42;;;;;24.50;100666.00;;;;5045228;28;20056;-74
2021/06/01 14:19:49;;;;;;;3.97;2.28;;;;;24.10;100587.00;;;;5046038;28;20071;-74
2021/06/01 14:28:15;;;;;;;7.55;2.55;;;;;24.10;100596.00;;;;5045696;28;20086;-73
2021/06/01 14:39:08;;;;;;;15.10;3.00;;;;;24.30;100613.00;;;;5044694;28;20029;-73
2021/06/01 15:29:07;;;;;;;9.70;1.80;;;;;21.70;100627.00;;;;5045679;28;20561;-72
2021/06/01 15:31:43;;;;;;;4.03;1.52;;;;;21.60;100618.00;;;;5045769;28;20107;-72
2021/06/01 15:48:04;;;;;;;8.20;1.70;;;;;20.80;100577.00;;;;5045473;28;20052;-75
2021/06/01 17:04:57;;;;;;;10.55;3.30;;;;;25.20;100421.00;;;;5006077;28;20133;-73
2021/06/01 17:13:16;;;;;;;4.95;2.58;;;;;25.00;100410.00;;;;5005751;28;20045;-73
2021/06/01 17:15:44;;;;;;;4.93;2.47;;;;;24.80;100392.00;;;;5005542;28;20040;-72